sensor_id;sensor_type;location;lat;lon;timestamp;P1;durP1;ratioP1;P2;durP2;ratioP2
1328;SDS011;658;48.820;9.354;2023-07-09T00:02:54;3.97;;;3.50;;
1328;SDS011;658;48.820;9.354;2023-07-09T00:06:59;3.63;;;3.33;;
1328;SDS011;658;48.820;9.354;2023-07-09T00:11:02;3.83;;;3.50;;
1328;SDS011;658;48.820;9.354;2023-07-09T00:15:03;3.67;;;3.37;;
1328;SDS011;658;48.820;9.354;2023-07-09T00:19:05;4.20;;;3.80;;
1328;SDS011;658;48.820;9.354;2023-07-09T00:23:11;4.13;;;3.83;;
1328;SDS011;658;48.820;9.354;2023-07-09T00:27:16;4.07;;;3.67;;
1328;SDS011;658;48.820;9.354;2023-07-09T00:31:19;4.47;;;4.17;;
1328;SDS011;658;48.820;9.354;2023-07-09T00:35:19;4.40;;;4.10;;
1328;SDS011;658;48.820;9.354;2023-07-09T00:39:22;4.40;;;4.10;;
1328;SDS011;658;48.820;9.354;2023-07-09T00:43:35;5.70;;;5.30;;
1328;SDS011;658;48.820;9.354;2023-07-09T00:51:59;5.00;;;4.57;;
1328;SDS011;658;48.820;9.354;2023-07-09T00:56:04;6.10;;;5.00;;
1328;SDS011;658;48.820;9.354;2023-07-09T01:00:09;4.97;;;4.43;;
1328;SDS011;658;48.820;9.354;2023-07-09T01:04:13;5.93;;;4.53;;
1328;SDS011;658;48.820;9.354;2023-07-09T01:08:17;4.47;;;4.07;;
1328;SDS011;658;48.820;9.354;2023-07-09T01:12:19;4.10;;;3.80;;
1328;SDS011;658;48.820;9.354;2023-07-09T01:16:22;3.97;;;3.67;;
1328;SDS011;658;48.820;9.354;2023-07-09T01:20:29;4.23;;;3.83;;
1328;SDS011;658;48.820;9.354;2023-07-09T01:28:53;3.97;;;3.70;;
1328;SDS011;658;48.820;9.354;2023-07-09T01:32:58;3.50;;;3.20;;
1328;SDS011;658;48.820;9.354;2023-07-09T01:37:00;4.67;;;3.83;;
1328;SDS011;658;48.820;9.354;2023-07-09T01:41:01;4.47;;;4.07;;
1328;SDS011;658;48.820;9.354;2023-07-09T01:45:02;4.03;;;3.70;;
1328;SDS011;658;48.820;9.354;2023-07-09T01:49:04;4.07;;;3.67;;
1328;SDS011;658;48.820;9.354;2023-07-09T01:53:07;4.10;;;3.70;;
1328;SDS011;658;48.820;9.354;2023-07-09T01:57:12;6.87;;;4.17;;
1328;SDS011;658;48.820;9.354;2023-07-09T02:01:17;4.33;;;3.60;;
1328;SDS011;658;48.820;9.354;2023-07-09T02:05:19;4.47;;;4.07;;
1328;SDS011;658;48.820;9.354;2023-07-09T02:09:20;4.17;;;3.77;;
1328;SDS011;658;48.820;9.354;2023-07-09T02:13:20;3.87;;;3.57;;
1328;SDS011;658;48.820;9.354;2023-07-09T02:17:21;4.53;;;3.53;;
1328;SDS011;658;48.820;9.354;2023-07-09T02:21:22;4.40;;;4.03;;
1328;SDS011;658;48.820;9.354;2023-07-09T02:25:22;3.87;;;3.47;;
1328;SDS011;658;48.820;9.354;2023-07-09T02:29:23;3.60;;;3.30;;
1328;SDS011;658;48.820;9.354;2023-07-09T02:33:25;3.43;;;3.23;;
1328;SDS011;658;48.820;9.354;2023-07-09T02:37:26;3.87;;;3.50;;
1328;SDS011;658;48.820;9.354;2023-07-09T02:41:29;4.47;;;4.07;;
1328;SDS011;658;48.820;9.354;2023-07-09T02:45:30;3.40;;;3.20;;
1328;SDS011;658;48.820;9.354;2023-07-09T02:49:31;4.17;;;3.83;;
1328;SDS011;658;48.820;9.354;2023-07-09T02:53:31;4.13;;;3.83;;
1328;SDS011;658;48.820;9.354;2023-07-09T02:57:32;4.33;;;3.90;;
1328;SDS011;658;48.820;9.354;2023-07-09T03:01:32;3.93;;;3.63;;
1328;SDS011;658;48.820;9.354;2023-07-09T03:05:34;3.80;;;3.60;;
1328;SDS011;658;48.820;9.354;2023-07-09T03:09:43;4.20;;;3.80;;
1328;SDS011;658;48.820;9.354;2023-07-09T03:13:43;3.70;;;3.30;;
1328;SDS011;658;48.820;9.354;2023-07-09T03:17:46;4.60;;;3.73;;
1328;SDS011;658;48.820;9.354;2023-07-09T03:21:47;4.20;;;3.80;;
1328;SDS011;658;48.820;9.354;2023-07-09T03:25:48;5.83;;;3.70;;
1328;SDS011;658;48.820;9.354;2023-07-09T03:29:48;3.97;;;3.67;;
1328;SDS011;658;48.820;9.354;2023-07-09T03:33:49;4.23;;;3.93;;
1328;SDS011;658;48.820;9.354;2023-07-09T03:37:51;3.63;;;3.33;;
1328;SDS011;658;48.820;9.354;2023-07-09T03:41:51;4.10;;;3.77;;
1328;SDS011;658;48.820;9.354;2023-07-09T03:45:52;3.70;;;3.40;;
1328;SDS011;658;48.820;9.354;2023-07-09T03:49:52;4.20;;;3.80;;
1328;SDS011;658;48.820;9.354;2023-07-09T03:53:53;3.90;;;3.50;;
1328;SDS011;658;48.820;9.354;2023-07-09T03:57:54;3.40;;;3.20;;
1328;SDS011;658;48.820;9.354;2023-07-09T04:01:55;4.20;;;3.80;;
1328;SDS011;658;48.820;9.354;2023-07-09T04:05:58;3.47;;;3.27;;
1328;SDS011;658;48.820;9.354;2023-07-09T04:09:58;3.77;;;3.47;;
1328;SDS011;658;48.820;9.354;2023-07-09T04:14:01;4.20;;;3.40;;
1328;SDS011;658;48.820;9.354;2023-07-09T04:18:02;3.77;;;3.47;;
1328;SDS011;658;48.820;9.354;2023-07-09T04:22:02;4.10;;;3.80;;
1328;SDS011;658;48.820;9.354;2023-07-09T04:26:03;4.13;;;3.83;;
1328;SDS011;658;48.820;9.354;2023-07-09T04:30:05;3.77;;;3.47;;
1328;SDS011;658;48.820;9.354;2023-07-09T04:34:07;4.60;;;4.13;;
1328;SDS011;658;48.820;9.354;2023-07-09T04:38:08;4.00;;;3.70;;
1328;SDS011;658;48.820;9.354;2023-07-09T04:42:10;4.63;;;4.23;;
1328;SDS011;658;48.820;9.354;2023-07-09T04:46:12;4.93;;;4.40;;
1328;SDS011;658;48.820;9.354;2023-07-09T04:50:13;3.90;;;3.60;;
1328;SDS011;658;48.820;9.354;2023-07-09T04:54:14;4.33;;;4.00;;
1328;SDS011;658;48.820;9.354;2023-07-09T04:58:15;3.90;;;3.60;;
1328;SDS011;658;48.820;9.354;2023-07-09T05:02:16;4.00;;;3.47;;
1328;SDS011;658;48.820;9.354;2023-07-09T05:06:17;4.30;;;3.67;;
1328;SDS011;658;48.820;9.354;2023-07-09T05:10:18;5.13;;;3.90;;
1328;SDS011;658;48.820;9.354;2023-07-09T05:14:18;4.40;;;3.97;;
1328;SDS011;658;48.820;9.354;2023-07-09T05:18:19;5.27;;;4.43;;
1328;SDS011;658;48.820;9.354;2023-07-09T05:22:19;4.30;;;3.90;;
1328;SDS011;658;48.820;9.354;2023-07-09T05:26:20;4.50;;;4.20;;
1328;SDS011;658;48.820;9.354;2023-07-09T05:30:23;4.33;;;3.93;;
1328;SDS011;658;48.820;9.354;2023-07-09T05:34:24;3.87;;;3.57;;
1328;SDS011;658;48.820;9.354;2023-07-09T05:38:27;5.00;;;3.90;;
1328;SDS011;658;48.820;9.354;2023-07-09T05:42:27;4.50;;;4.10;;
1328;SDS011;658;48.820;9.354;2023-07-09T05:46:28;4.60;;;4.20;;
1328;SDS011;658;48.820;9.354;2023-07-09T05:50:28;5.17;;;4.67;;
1328;SDS011;658;48.820;9.354;2023-07-09T05:54:32;4.00;;;3.70;;
1328;SDS011;658;48.820;9.354;2023-07-09T05:58:33;5.43;;;4.93;;
1328;SDS011;658;48.820;9.354;2023-07-09T06:02:34;4.30;;;4.00;;
1328;SDS011;658;48.820;9.354;2023-07-09T06:06:37;5.03;;;4.53;;
1328;SDS011;658;48.820;9.354;2023-07-09T06:10:49;4.93;;;4.43;;
1328;SDS011;658;48.820;9.354;2023-07-09T06:14:52;6.33;;;4.70;;
1328;SDS011;658;48.820;9.354;2023-07-09T06:18:53;5.80;;;5.30;;
1328;SDS011;658;48.820;9.354;2023-07-09T06:22:54;5.13;;;4.67;;
1328;SDS011;658;48.820;9.354;2023-07-09T06:26:57;5.07;;;4.67;;
1328;SDS011;658;48.820;9.354;2023-07-09T06:30:58;5.37;;;4.70;;
1328;SDS011;658;48.820;9.354;2023-07-09T06:35:00;5.17;;;4.67;;
1328;SDS011;658;48.820;9.354;2023-07-09T06:39:00;5.60;;;5.10;;
1328;SDS011;658;48.820;9.354;2023-07-09T06:43:01;5.00;;;4.60;;
1328;SDS011;658;48.820;9.354;2023-07-09T06:47:04;6.20;;;5.10;;
1328;SDS011;658;48.820;9.354;2023-07-09T06:51:07;4.73;;;4.33;;
1328;SDS011;658;48.820;9.354;2023-07-09T06:55:08;4.83;;;4.50;;
1328;SDS011;658;48.820;9.354;2023-07-09T06:59:11;6.00;;;5.07;;
1328;SDS011;658;48.820;9.354;2023-07-09T07:03:14;5.80;;;5.03;;
1328;SDS011;658;48.820;9.354;2023-07-09T07:07:15;5.67;;;4.97;;
1328;SDS011;658;48.820;9.354;2023-07-09T07:11:17;5.03;;;4.63;;
1328;SDS011;658;48.820;9.354;2023-07-09T07:15:18;4.67;;;4.30;;
1328;SDS011;658;48.820;9.354;2023-07-09T07:19:19;5.13;;;4.63;;
1328;SDS011;658;48.820;9.354;2023-07-09T07:23:19;5.33;;;4.83;;
1328;SDS011;658;48.820;9.354;2023-07-09T07:27:20;5.07;;;4.63;;
1328;SDS011;658;48.820;9.354;2023-07-09T07:31:20;5.27;;;4.77;;
1328;SDS011;658;48.820;9.354;2023-07-09T07:35:21;6.53;;;5.73;;
1328;SDS011;658;48.820;9.354;2023-07-09T07:39:22;6.20;;;5.10;;
1328;SDS011;658;48.820;9.354;2023-07-09T07:43:24;5.60;;;5.10;;
1328;SDS011;658;48.820;9.354;2023-07-09T07:47:25;5.40;;;4.90;;
1328;SDS011;658;48.820;9.354;2023-07-09T07:51:27;5.20;;;4.80;;
1328;SDS011;658;48.820;9.354;2023-07-09T07:55:28;6.90;;;4.20;;
1328;SDS011;658;48.820;9.354;2023-07-09T07:59:28;5.17;;;4.70;;
1328;SDS011;658;48.820;9.354;2023-07-09T08:03:29;5.17;;;4.73;;
1328;SDS011;658;48.820;9.354;2023-07-09T08:07:30;6.17;;;4.60;;
1328;SDS011;658;48.820;9.354;2023-07-09T08:11:30;4.80;;;4.40;;
1328;SDS011;658;48.820;9.354;2023-07-09T08:15:32;5.13;;;4.50;;
1328;SDS011;658;48.820;9.354;2023-07-09T08:19:43;4.70;;;4.20;;
1328;SDS011;658;48.820;9.354;2023-07-09T08:23:48;4.27;;;3.97;;
1328;SDS011;658;48.820;9.354;2023-07-09T08:27:51;4.77;;;4.37;;
1328;SDS011;658;48.820;9.354;2023-07-09T08:31:51;4.80;;;4.37;;
1328;SDS011;658;48.820;9.354;2023-07-09T08:35:54;4.53;;;4.13;;
1328;SDS011;658;48.820;9.354;2023-07-09T08:39:55;4.53;;;4.13;;
1328;SDS011;658;48.820;9.354;2023-07-09T08:44:03;3.83;;;3.50;;
1328;SDS011;658;48.820;9.354;2023-07-09T08:48:33;4.37;;;4.07;;
1328;SDS011;658;48.820;9.354;2023-07-09T08:52:37;4.50;;;3.70;;
1328;SDS011;658;48.820;9.354;2023-07-09T08:56:42;5.33;;;4.83;;
1328;SDS011;658;48.820;9.354;2023-07-09T09:00:49;3.90;;;3.60;;
1328;SDS011;658;48.820;9.354;2023-07-09T09:04:56;4.40;;;4.03;;
1328;SDS011;658;48.820;9.354;2023-07-09T09:13:13;4.00;;;3.80;;
1328;SDS011;658;48.820;9.354;2023-07-09T09:17:19;4.73;;;4.23;;
1328;SDS011;658;48.820;9.354;2023-07-09T09:21:25;4.23;;;3.83;;
1328;SDS011;658;48.820;9.354;2023-07-09T09:25:37;4.20;;;3.90;;
1328;SDS011;658;48.820;9.354;2023-07-09T09:29:44;3.97;;;3.50;;
1328;SDS011;658;48.820;9.354;2023-07-09T09:33:47;4.13;;;3.60;;
1328;SDS011;658;48.820;9.354;2023-07-09T09:37:52;4.57;;;4.17;;
1328;SDS011;658;48.820;9.354;2023-07-09T09:41:55;4.40;;;3.90;;
1328;SDS011;658;48.820;9.354;2023-07-09T09:46:05;3.27;;;3.03;;
1328;SDS011;658;48.820;9.354;2023-07-09T09:50:06;3.90;;;3.60;;
1328;SDS011;658;48.820;9.354;2023-07-09T09:54:16;4.20;;;3.90;;
1328;SDS011;658;48.820;9.354;2023-07-09T09:58:19;4.47;;;4.07;;
1328;SDS011;658;48.820;9.354;2023-07-09T10:02:21;3.63;;;3.33;;
1328;SDS011;658;48.820;9.354;2023-07-09T10:06:45;3.30;;;3.10;;
1328;SDS011;658;48.820;9.354;2023-07-09T10:10:53;3.27;;;3.07;;
1328;SDS011;658;48.820;9.354;2023-07-09T10:15:17;3.90;;;3.60;;
1328;SDS011;658;48.820;9.354;2023-07-09T10:33:28;3.80;;;3.43;;
1328;SDS011;658;48.820;9.354;2023-07-09T10:37:45;3.60;;;3.30;;
1328;SDS011;658;48.820;9.354;2023-07-09T10:41:55;3.90;;;3.60;;
1328;SDS011;658;48.820;9.354;2023-07-09T10:46:01;3.33;;;2.90;;
1328;SDS011;658;48.820;9.354;2023-07-09T10:50:06;3.90;;;3.60;;
1328;SDS011;658;48.820;9.354;2023-07-09T10:54:21;6.00;;;3.43;;
1328;SDS011;658;48.820;9.354;2023-07-09T10:58:35;4.30;;;3.27;;
1328;SDS011;658;48.820;9.354;2023-07-09T11:02:37;4.50;;;3.00;;
1328;SDS011;658;48.820;9.354;2023-07-09T11:06:41;3.10;;;2.80;;
1328;SDS011;658;48.820;9.354;2023-07-09T11:14:56;3.23;;;2.93;;
1328;SDS011;658;48.820;9.354;2023-07-09T11:19:19;3.47;;;3.17;;
1328;SDS011;658;48.820;9.354;2023-07-09T11:23:22;3.00;;;2.63;;
1328;SDS011;658;48.820;9.354;2023-07-09T11:27:25;3.47;;;3.13;;
1328;SDS011;658;48.820;9.354;2023-07-09T11:35:45;3.40;;;3.10;;
1328;SDS011;658;48.820;9.354;2023-07-09T11:39:48;3.17;;;2.87;;
1328;SDS011;658;48.820;9.354;2023-07-09T11:43:48;3.20;;;2.90;;
1328;SDS011;658;48.820;9.354;2023-07-09T11:47:50;3.63;;;2.90;;
1328;SDS011;658;48.820;9.354;2023-07-09T11:51:57;3.20;;;2.90;;
1328;SDS011;658;48.820;9.354;2023-07-09T11:56:02;4.73;;;2.90;;
1328;SDS011;658;48.820;9.354;2023-07-09T12:00:05;3.00;;;2.70;;
1328;SDS011;658;48.820;9.354;2023-07-09T12:04:11;2.87;;;2.67;;
1328;SDS011;658;48.820;9.354;2023-07-09T12:08:14;4.80;;;3.20;;
1328;SDS011;658;48.820;9.354;2023-07-09T12:12:20;3.13;;;2.83;;
1328;SDS011;658;48.820;9.354;2023-07-09T12:20:39;4.43;;;3.20;;
1328;SDS011;658;48.820;9.354;2023-07-09T12:24:42;2.93;;;2.67;;
1328;SDS011;658;48.820;9.354;2023-07-09T12:28:57;2.93;;;2.73;;
1328;SDS011;658;48.820;9.354;2023-07-09T12:32:58;3.27;;;2.90;;
1328;SDS011;658;48.820;9.354;2023-07-09T12:37:09;2.60;;;2.40;;
1328;SDS011;658;48.820;9.354;2023-07-09T12:41:17;3.10;;;2.80;;
1328;SDS011;658;48.820;9.354;2023-07-09T12:45:31;2.90;;;2.60;;
1328;SDS011;658;48.820;9.354;2023-07-09T12:49:38;2.80;;;2.60;;
1328;SDS011;658;48.820;9.354;2023-07-09T12:53:41;3.97;;;2.77;;
1328;SDS011;658;48.820;9.354;2023-07-09T12:57:41;2.83;;;2.63;;
1328;SDS011;658;48.820;9.354;2023-07-09T13:01:42;3.20;;;2.60;;
1328;SDS011;658;48.820;9.354;2023-07-09T13:05:55;2.60;;;2.40;;
1328;SDS011;658;48.820;9.354;2023-07-09T13:10:05;2.90;;;2.53;;
1328;SDS011;658;48.820;9.354;2023-07-09T13:14:11;2.50;;;2.30;;
1328;SDS011;658;48.820;9.354;2023-07-09T13:18:20;3.20;;;2.83;;
1328;SDS011;658;48.820;9.354;2023-07-09T13:22:20;2.57;;;2.37;;
1328;SDS011;658;48.820;9.354;2023-07-09T13:26:21;2.43;;;2.33;;
1328;SDS011;658;48.820;9.354;2023-07-09T13:30:22;2.93;;;2.73;;
1328;SDS011;658;48.820;9.354;2023-07-09T13:34:24;2.93;;;2.73;;
1328;SDS011;658;48.820;9.354;2023-07-09T13:38:25;2.80;;;2.60;;
1328;SDS011;658;48.820;9.354;2023-07-09T13:42:28;2.80;;;2.60;;
1328;SDS011;658;48.820;9.354;2023-07-09T13:46:29;2.93;;;2.70;;
1328;SDS011;658;48.820;9.354;2023-07-09T13:50:29;3.17;;;2.87;;
1328;SDS011;658;48.820;9.354;2023-07-09T13:54:30;2.70;;;2.50;;
1328;SDS011;658;48.820;9.354;2023-07-09T13:58:35;2.70;;;2.50;;
1328;SDS011;658;48.820;9.354;2023-07-09T14:02:36;2.60;;;2.30;;
1328;SDS011;658;48.820;9.354;2023-07-09T14:06:40;3.40;;;3.10;;
1328;SDS011;658;48.820;9.354;2023-07-09T14:10:41;2.60;;;2.40;;
1328;SDS011;658;48.820;9.354;2023-07-09T14:14:44;2.40;;;2.20;;
1328;SDS011;658;48.820;9.354;2023-07-09T14:18:47;3.70;;;2.30;;
1328;SDS011;658;48.820;9.354;2023-07-09T14:22:48;2.83;;;2.63;;
1328;SDS011;658;48.820;9.354;2023-07-09T14:26:53;3.63;;;2.73;;
1328;SDS011;658;48.820;9.354;2023-07-09T14:30:56;3.77;;;2.43;;
1328;SDS011;658;48.820;9.354;2023-07-09T14:34:56;3.17;;;2.93;;
1328;SDS011;658;48.820;9.354;2023-07-09T14:38:57;2.67;;;2.47;;
1328;SDS011;658;48.820;9.354;2023-07-09T14:42:58;2.73;;;2.53;;
1328;SDS011;658;48.820;9.354;2023-07-09T14:47:03;2.93;;;2.63;;
1328;SDS011;658;48.820;9.354;2023-07-09T14:51:14;2.80;;;2.60;;
1328;SDS011;658;48.820;9.354;2023-07-09T14:55:20;2.83;;;2.63;;
1328;SDS011;658;48.820;9.354;2023-07-09T14:59:23;2.00;;;1.90;;
1328;SDS011;658;48.820;9.354;2023-07-09T15:03:25;2.10;;;2.00;;
1328;SDS011;658;48.820;9.354;2023-07-09T15:07:26;2.87;;;2.50;;
1328;SDS011;658;48.820;9.354;2023-07-09T15:11:29;2.87;;;2.60;;
1328;SDS011;658;48.820;9.354;2023-07-09T15:15:30;4.30;;;2.97;;
1328;SDS011;658;48.820;9.354;2023-07-09T15:19:34;2.20;;;2.10;;
1328;SDS011;658;48.820;9.354;2023-07-09T15:23:36;2.73;;;2.53;;
1328;SDS011;658;48.820;9.354;2023-07-09T15:27:41;2.47;;;2.10;;
1328;SDS011;658;48.820;9.354;2023-07-09T15:31:42;2.30;;;2.10;;
1328;SDS011;658;48.820;9.354;2023-07-09T15:35:44;3.10;;;2.47;;
1328;SDS011;658;48.820;9.354;2023-07-09T15:39:46;2.20;;;2.10;;
1328;SDS011;658;48.820;9.354;2023-07-09T15:43:46;2.50;;;2.30;;
1328;SDS011;658;48.820;9.354;2023-07-09T15:47:47;5.10;;;2.27;;
1328;SDS011;658;48.820;9.354;2023-07-09T15:51:50;3.30;;;2.20;;
1328;SDS011;658;48.820;9.354;2023-07-09T15:55:54;2.63;;;2.40;;
1328;SDS011;658;48.820;9.354;2023-07-09T15:59:58;2.13;;;2.00;;
1328;SDS011;658;48.820;9.354;2023-07-09T16:04:01;2.60;;;2.40;;
1328;SDS011;658;48.820;9.354;2023-07-09T16:08:08;2.60;;;2.40;;
1328;SDS011;658;48.820;9.354;2023-07-09T16:12:10;3.30;;;2.63;;
1328;SDS011;658;48.820;9.354;2023-07-09T16:16:13;2.70;;;2.50;;
1328;SDS011;658;48.820;9.354;2023-07-09T16:20:16;2.33;;;2.13;;
1328;SDS011;658;48.820;9.354;2023-07-09T16:24:27;2.50;;;2.30;;
1328;SDS011;658;48.820;9.354;2023-07-09T16:28:30;2.70;;;2.50;;
1328;SDS011;658;48.820;9.354;2023-07-09T16:32:31;2.13;;;2.00;;
1328;SDS011;658;48.820;9.354;2023-07-09T16:36:32;2.30;;;2.10;;
1328;SDS011;658;48.820;9.354;2023-07-09T16:40:32;2.30;;;2.20;;
1328;SDS011;658;48.820;9.354;2023-07-09T16:44:33;2.23;;;2.07;;
1328;SDS011;658;48.820;9.354;2023-07-09T16:48:34;2.50;;;2.30;;
1328;SDS011;658;48.820;9.354;2023-07-09T16:52:34;2.40;;;2.27;;
1328;SDS011;658;48.820;9.354;2023-07-09T16:56:37;2.23;;;2.07;;
1328;SDS011;658;48.820;9.354;2023-07-09T17:00:38;2.47;;;2.37;;
1328;SDS011;658;48.820;9.354;2023-07-09T17:04:39;2.53;;;2.33;;
1328;SDS011;658;48.820;9.354;2023-07-09T17:08:39;2.40;;;2.20;;
1328;SDS011;658;48.820;9.354;2023-07-09T17:12:42;2.70;;;2.50;;
1328;SDS011;658;48.820;9.354;2023-07-09T17:16:43;2.50;;;2.30;;
1328;SDS011;658;48.820;9.354;2023-07-09T17:20:45;2.30;;;2.10;;
1328;SDS011;658;48.820;9.354;2023-07-09T17:24:47;2.50;;;2.30;;
1328;SDS011;658;48.820;9.354;2023-07-09T17:28:47;2.40;;;2.20;;
1328;SDS011;658;48.820;9.354;2023-07-09T17:32:48;2.13;;;2.03;;
1328;SDS011;658;48.820;9.354;2023-07-09T17:36:49;2.10;;;2.00;;
1328;SDS011;658;48.820;9.354;2023-07-09T17:40:49;2.77;;;2.57;;
1328;SDS011;658;48.820;9.354;2023-07-09T17:44:50;2.63;;;2.43;;
1328;SDS011;658;48.820;9.354;2023-07-09T17:48:50;2.43;;;2.23;;
1328;SDS011;658;48.820;9.354;2023-07-09T17:52:52;2.77;;;2.57;;
1328;SDS011;658;48.820;9.354;2023-07-09T17:56:54;3.00;;;2.50;;
1328;SDS011;658;48.820;9.354;2023-07-09T18:01:00;2.30;;;2.10;;
1328;SDS011;658;48.820;9.354;2023-07-09T18:05:02;1.90;;;1.80;;
1328;SDS011;658;48.820;9.354;2023-07-09T18:09:24;2.57;;;2.37;;
1328;SDS011;658;48.820;9.354;2023-07-09T18:13:25;2.30;;;2.00;;
1328;SDS011;658;48.820;9.354;2023-07-09T18:17:31;2.70;;;2.50;;
1328;SDS011;658;48.820;9.354;2023-07-09T18:21:33;2.40;;;2.20;;
1328;SDS011;658;48.820;9.354;2023-07-09T18:25:37;2.10;;;2.00;;
1328;SDS011;658;48.820;9.354;2023-07-09T18:29:40;3.20;;;2.10;;
1328;SDS011;658;48.820;9.354;2023-07-09T18:33:41;2.47;;;2.27;;
1328;SDS011;658;48.820;9.354;2023-07-09T18:37:42;2.27;;;2.00;;
1328;SDS011;658;48.820;9.354;2023-07-09T18:41:43;2.20;;;1.87;;
1328;SDS011;658;48.820;9.354;2023-07-09T18:45:43;2.00;;;1.90;;
1328;SDS011;658;48.820;9.354;2023-07-09T18:49:45;2.40;;;2.27;;
1328;SDS011;658;48.820;9.354;2023-07-09T18:53:46;2.43;;;2.33;;
1328;SDS011;658;48.820;9.354;2023-07-09T18:57:46;2.50;;;2.30;;
1328;SDS011;658;48.820;9.354;2023-07-09T19:01:50;2.37;;;2.23;;
1328;SDS011;658;48.820;9.354;2023-07-09T19:05:51;2.50;;;2.30;;
1328;SDS011;658;48.820;9.354;2023-07-09T19:09:51;2.50;;;2.30;;
1328;SDS011;658;48.820;9.354;2023-07-09T19:13:54;2.43;;;2.23;;
1328;SDS011;658;48.820;9.354;2023-07-09T19:17:55;2.87;;;2.67;;
1328;SDS011;658;48.820;9.354;2023-07-09T19:21:56;4.70;;;2.80;;
1328;SDS011;658;48.820;9.354;2023-07-09T19:25:57;2.47;;;2.27;;
1328;SDS011;658;48.820;9.354;2023-07-09T19:29:57;2.87;;;2.63;;
1328;SDS011;658;48.820;9.354;2023-07-09T19:34:00;2.33;;;2.13;;
1328;SDS011;658;48.820;9.354;2023-07-09T19:38:01;2.67;;;2.47;;
1328;SDS011;658;48.820;9.354;2023-07-09T19:42:08;2.50;;;2.30;;
1328;SDS011;658;48.820;9.354;2023-07-09T19:46:30;2.60;;;2.40;;
1328;SDS011;658;48.820;9.354;2023-07-09T19:50:31;2.80;;;2.37;;
1328;SDS011;658;48.820;9.354;2023-07-09T19:54:33;2.67;;;2.40;;
1328;SDS011;658;48.820;9.354;2023-07-09T19:58:34;3.57;;;2.70;;
1328;SDS011;658;48.820;9.354;2023-07-09T20:02:35;3.87;;;2.37;;
1328;SDS011;658;48.820;9.354;2023-07-09T20:06:36;2.80;;;2.37;;
1328;SDS011;658;48.820;9.354;2023-07-09T20:10:37;2.40;;;1.90;;
1328;SDS011;658;48.820;9.354;2023-07-09T20:14:38;2.00;;;1.90;;
1328;SDS011;658;48.820;9.354;2023-07-09T20:18:38;2.50;;;2.30;;
1328;SDS011;658;48.820;9.354;2023-07-09T20:22:39;2.60;;;2.40;;
1328;SDS011;658;48.820;9.354;2023-07-09T20:26:40;2.33;;;1.97;;
1328;SDS011;658;48.820;9.354;2023-07-09T20:30:41;2.63;;;2.00;;
1328;SDS011;658;48.820;9.354;2023-07-09T20:34:42;1.87;;;1.77;;
1328;SDS011;658;48.820;9.354;2023-07-09T20:38:44;2.50;;;2.30;;
1328;SDS011;658;48.820;9.354;2023-07-09T20:42:48;2.13;;;1.90;;
1328;SDS011;658;48.820;9.354;2023-07-09T20:46:52;4.77;;;4.03;;
1328;SDS011;658;48.820;9.354;2023-07-09T20:50:52;4.23;;;3.83;;
1328;SDS011;658;48.820;9.354;2023-07-09T20:54:56;5.73;;;5.10;;
1328;SDS011;658;48.820;9.354;2023-07-09T20:58:57;5.10;;;4.60;;
1328;SDS011;658;48.820;9.354;2023-07-09T21:03:00;8.83;;;4.57;;
1328;SDS011;658;48.820;9.354;2023-07-09T21:07:00;5.20;;;4.80;;
1328;SDS011;658;48.820;9.354;2023-07-09T21:11:01;7.13;;;5.90;;
1328;SDS011;658;48.820;9.354;2023-07-09T21:15:01;6.77;;;5.93;;
1328;SDS011;658;48.820;9.354;2023-07-09T21:19:02;9.07;;;5.43;;
1328;SDS011;658;48.820;9.354;2023-07-09T21:23:04;6.77;;;5.20;;
1328;SDS011;658;48.820;9.354;2023-07-09T21:27:17;5.63;;;5.03;;
1328;SDS011;658;48.820;9.354;2023-07-09T21:31:18;6.00;;;4.97;;
1328;SDS011;658;48.820;9.354;2023-07-09T21:35:20;6.23;;;5.63;;
1328;SDS011;658;48.820;9.354;2023-07-09T21:39:23;6.20;;;5.20;;
1328;SDS011;658;48.820;9.354;2023-07-09T21:43:25;5.67;;;5.17;;
1328;SDS011;658;48.820;9.354;2023-07-09T21:47:25;6.33;;;5.50;;
1328;SDS011;658;48.820;9.354;2023-07-09T21:51:27;6.07;;;5.40;;
1328;SDS011;658;48.820;9.354;2023-07-09T21:55:29;6.93;;;6.13;;
1328;SDS011;658;48.820;9.354;2023-07-09T21:59:30;6.03;;;5.13;;
1328;SDS011;658;48.820;9.354;2023-07-09T22:03:31;6.90;;;6.10;;
1328;SDS011;658;48.820;9.354;2023-07-09T22:07:32;6.17;;;5.57;;
1328;SDS011;658;48.820;9.354;2023-07-09T22:11:32;5.67;;;5.10;;
1328;SDS011;658;48.820;9.354;2023-07-09T22:15:33;5.30;;;4.73;;
1328;SDS011;658;48.820;9.354;2023-07-09T22:19:35;6.03;;;5.37;;
1328;SDS011;658;48.820;9.354;2023-07-09T22:23:35;5.73;;;5.10;;
1328;SDS011;658;48.820;9.354;2023-07-09T22:27:36;4.67;;;4.27;;
1328;SDS011;658;48.820;9.354;2023-07-09T22:31:37;6.60;;;5.83;;
1328;SDS011;658;48.820;9.354;2023-07-09T22:35:39;5.83;;;5.23;;
1328;SDS011;658;48.820;9.354;2023-07-09T22:39:40;5.90;;;5.30;;
1328;SDS011;658;48.820;9.354;2023-07-09T22:43:41;6.77;;;5.77;;
1328;SDS011;658;48.820;9.354;2023-07-09T22:47:42;6.70;;;5.60;;
1328;SDS011;658;48.820;9.354;2023-07-09T22:51:43;6.83;;;6.00;;
1328;SDS011;658;48.820;9.354;2023-07-09T22:55:45;5.57;;;5.13;;
1328;SDS011;658;48.820;9.354;2023-07-09T22:59:50;6.70;;;6.10;;
1328;SDS011;658;48.820;9.354;2023-07-09T23:03:50;8.53;;;5.47;;
1328;SDS011;658;48.820;9.354;2023-07-09T23:07:51;6.37;;;4.83;;
1328;SDS011;658;48.820;9.354;2023-07-09T23:11:52;5.17;;;4.67;;
1328;SDS011;658;48.820;9.354;2023-07-09T23:15:53;5.50;;;5.00;;
1328;SDS011;658;48.820;9.354;2023-07-09T23:19:54;5.90;;;5.30;;
1328;SDS011;658;48.820;9.354;2023-07-09T23:23:56;5.67;;;4.70;;
1328;SDS011;658;48.820;9.354;2023-07-09T23:28:01;5.97;;;5.17;;
1328;SDS011;658;48.820;9.354;2023-07-09T23:32:03;5.00;;;4.60;;
1328;SDS011;658;48.820;9.354;2023-07-09T23:36:05;5.13;;;4.60;;
1328;SDS011;658;48.820;9.354;2023-07-09T23:40:10;5.47;;;4.93;;
1328;SDS011;658;48.820;9.354;2023-07-09T23:44:14;5.70;;;5.10;;
1328;SDS011;658;48.820;9.354;2023-07-09T23:52:26;5.50;;;5.00;;
1328;SDS011;658;48.820;9.354;2023-07-09T23:56:32;5.90;;;4.90;;
